Airfield :
LOGIN :

Register | Disclaimer

   EN    FR    IT 

 










Legend :    VFR   Marginal VFR   IFR   Intensive IFR   Very Intensive IFR
Visi :
Ceiling :
>= 8 km
>= 3000ft
5 to 8 km
1000 to 3000 ft
1500m to 5 km
500 to 1000 ft
800 to 1500m
200 to 500 ft
< 800m
< 200 ft
Symbols :   Thunderstorms  Fog  Heavy snow  Heavy precipitations  Wind > 20 kt
SIGMETs :     Misc.  Thunderstorms  Icing  Turbulence  Mountain Waves  Volcanic Ashes






- Airport Elevation : 27 ft
- IATA code : PMI


LEPA - Palma de Mallorca

CURRENT METAR :
  • 081700Z 22009KT CAVOK 29/21 Q1017 NOSIG

EXPIRED METARs :
  • 081630Z 23009KT 190V250 CAVOK 30/21 Q1017 NOSIG
  • 081600Z 23009KT 200V260 CAVOK 30/21 Q1017 NOSIG
  • 081530Z 21009KT 160V240 CAVOK 30/18 Q1018 NOSIG
  • 081500Z 23010KT 200V260 CAVOK 30/19 Q1018 NOSIG
  • 081430Z 22011KT 190V250 9999 FEW035 31/17 Q1018 NOSIG

TAF TAF LEPA
Valid from the 08 at 12:00 until the 09 at 12:00 UTC


081100Z 0812/0912 22010KT 9999 FEW030 TX33/0812Z TN21/0906Z
BECMG 0818/0820 VRB03KT



MET'MAP, your aeronautical weather chart ! - Copyright ORBIFLY December 2007 - Disclaimer

ORBIFLY MET'MAP TEAM :

Programming & Development : Alexandra Zaïnal
Concept & original design : Baudouin d'Aumeries
Assistance for programming : Marc-Olivier Méhu
Technical & hardware support : Manuel Goepfert

Contact : metmap@orbifly.com




SOURCES & CREDITS :

   NOAA